createdAt,value
2018-04-14T00:02:10.298Z,32.13
2018-04-14T00:04:38.352Z,33.33
2018-04-14T00:07:06.441Z,30.70
2018-04-14T00:09:34.506Z,41.90
2018-04-14T00:12:02.568Z,36.73
2018-04-14T00:14:30.644Z,37.70
2018-04-14T00:16:58.729Z,37.50
2018-04-14T00:19:26.789Z,30.27
2018-04-14T00:21:54.845Z,34.42
2018-04-14T00:24:22.913Z,34.13
2018-04-14T00:26:52.093Z,32.17
2018-04-14T00:29:20.392Z,34.30
2018-04-14T00:31:48.448Z,35.63
2018-04-14T00:34:16.518Z,34.27
2018-04-14T00:36:44.567Z,43.30
2018-04-14T00:39:12.661Z,36.40
2018-04-14T00:41:40.708Z,42.77
2018-04-14T00:44:08.763Z,32.75
2018-04-14T00:46:36.889Z,43.37
2018-04-14T00:49:04.960Z,38.13
2018-04-14T00:51:33.016Z,42.40
2018-04-14T00:54:01.088Z,42.95
2018-04-14T00:56:29.144Z,38.75
2018-04-14T00:58:57.189Z,50.40
2018-04-14T01:01:25.252Z,42.30
2018-04-14T01:03:54.200Z,45.33
2018-04-14T01:06:22.264Z,44.50
2018-04-14T01:08:50.837Z,46.33
2018-04-14T01:11:18.896Z,43.77
2018-04-14T01:13:46.951Z,43.90
2018-04-14T01:16:15.023Z,41.97
2018-04-14T01:18:43.081Z,44.60
2018-04-14T01:21:11.137Z,39.77
2018-04-14T01:23:39.188Z,39.08
2018-04-14T01:26:07.348Z,50.77
2018-04-14T01:28:35.403Z,37.40
2018-04-14T01:31:03.457Z,38.80
2018-04-14T01:33:31.508Z,35.13
2018-04-14T01:35:59.625Z,35.63
2018-04-14T01:38:27.678Z,34.97
2018-04-14T01:40:55.769Z,42.95
2018-04-14T01:43:23.816Z,33.50
2018-04-14T01:45:52.533Z,36.78
2018-04-14T01:48:21.425Z,33.83
2018-04-14T01:50:49.484Z,39.80
2018-04-14T01:53:17.537Z,30.53
2018-04-14T01:55:45.646Z,33.80
2018-04-14T01:58:13.702Z,35.37
2018-04-14T02:00:41.759Z,29.23
2018-04-14T02:03:09.816Z,31.53
2018-04-14T02:05:37.881Z,27.33
2018-04-14T02:08:05.934Z,31.57
2018-04-14T02:10:34.045Z,31.27
2018-04-14T02:13:02.095Z,23.87
2018-04-14T02:15:30.156Z,23.67
2018-04-14T02:17:58.204Z,20.67
2018-04-14T02:20:26.268Z,26.25
2018-04-14T02:22:54.396Z,22.40
2018-04-14T02:25:22.469Z,25.10
2018-04-14T02:27:50.521Z,26.10
2018-04-14T02:30:18.609Z,23.27
2018-04-14T02:32:46.671Z,23.07
2018-04-14T02:35:14.741Z,24.17
2018-04-14T02:37:42.793Z,16.37
2018-04-14T02:40:10.855Z,15.33
2018-04-14T02:42:38.959Z,18.00
2018-04-14T02:45:07.017Z,20.90
2018-04-14T02:47:35.070Z,16.90
2018-04-14T02:50:03.148Z,17.77
2018-04-14T02:52:31.198Z,16.10
2018-04-14T02:54:59.308Z,12.77
2018-04-14T02:57:27.372Z,13.64
2018-04-14T02:59:55.433Z,19.85
2018-04-14T03:02:24.190Z,12.48
2018-04-14T03:04:53.415Z,14.53
2018-04-14T03:07:22.579Z,12.83
2018-04-14T03:09:50.708Z,17.73
2018-04-14T03:12:18.776Z,18.63
2018-04-14T03:14:46.828Z,16.47
2018-04-14T03:17:14.893Z,14.73
2018-04-14T03:19:42.969Z,9.87
2018-04-14T03:22:11.031Z,13.25
2018-04-14T03:24:39.081Z,9.63
2018-04-14T03:27:07.182Z,12.82
2018-04-14T03:29:35.271Z,11.10
2018-04-14T03:32:03.350Z,11.50
2018-04-14T03:34:31.403Z,10.73
2018-04-14T03:36:59.452Z,12.57
2018-04-14T03:39:27.553Z,10.52
2018-04-14T03:41:55.620Z,14.10
2018-04-14T03:44:23.669Z,12.60
2018-04-14T03:46:53.480Z,10.57
2018-04-14T03:49:21.525Z,10.67
2018-04-14T03:51:49.581Z,11.03
2018-04-14T03:54:17.628Z,10.50
2018-04-14T03:56:45.689Z,13.50
2018-04-14T03:59:13.757Z,12.40
2018-04-14T04:01:41.820Z,13.50
2018-04-14T04:04:09.863Z,16.73
2018-04-14T04:06:37.920Z,12.70
2018-04-14T04:09:05.972Z,11.53
2018-04-14T04:11:34.104Z,11.80
2018-04-14T04:14:02.156Z,8.82
2018-04-14T04:16:30.218Z,8.80
2018-04-14T04:19:15.728Z,7.93
2018-04-14T04:22:01.484Z,7.63
2018-04-14T04:24:47.249Z,9.83
2018-04-14T04:27:15.305Z,8.95
2018-04-14T04:29:43.436Z,9.88
2018-04-14T04:32:11.485Z,11.80
2018-04-14T04:34:39.547Z,8.57
2018-04-14T04:37:07.612Z,8.27
2018-04-14T04:39:35.657Z,9.37
2018-04-14T04:42:03.788Z,8.93
2018-04-14T04:44:31.832Z,7.90
2018-04-14T04:46:59.928Z,9.60
2018-04-14T04:49:27.972Z,8.10
2018-04-14T04:51:56.047Z,12.27
2018-04-14T04:54:24.093Z,8.20
2018-04-14T04:56:52.335Z,6.53
2018-04-14T04:59:20.379Z,8.07
2018-04-14T05:01:48.437Z,7.43
2018-04-14T05:04:16.530Z,8.33
2018-04-14T05:06:44.579Z,8.47
2018-04-14T05:09:12.621Z,7.33
2018-04-14T05:11:40.673Z,7.63
2018-04-14T05:14:08.712Z,7.77
2018-04-14T05:16:36.775Z,12.10
2018-04-14T05:19:04.848Z,8.83
2018-04-14T05:21:32.900Z,8.60
2018-04-14T05:24:00.984Z,8.33
2018-04-14T05:26:29.043Z,9.00
2018-04-14T05:28:57.138Z,15.27
2018-04-14T05:31:25.188Z,8.70
2018-04-14T05:33:54.105Z,13.60
2018-04-14T05:36:24.104Z,14.63
2018-04-14T05:38:52.179Z,7.50
2018-04-14T05:41:20.237Z,7.00
2018-04-14T05:43:48.288Z,9.97
2018-04-14T05:46:16.366Z,13.37
2018-04-14T05:48:44.414Z,9.13
2018-04-14T05:51:12.604Z,98.97
2018-04-14T05:53:40.677Z,96.73
2018-04-14T05:56:08.729Z,13.00
2018-04-14T05:58:36.792Z,8.83
2018-04-14T06:01:04.883Z,11.43
2018-04-14T06:03:35.881Z,7.90
2018-04-14T06:06:04.528Z,8.00
2018-04-14T06:08:32.577Z,4.90
2018-04-14T06:11:00.691Z,29.60
2018-04-14T06:13:28.926Z,9.63
2018-04-14T06:15:57.010Z,11.27
2018-04-14T06:18:28.514Z,15.31
2018-04-14T06:20:56.573Z,5.53
2018-04-14T06:23:24.634Z,6.00
2018-04-14T06:25:52.710Z,17.67
2018-04-14T06:28:22.517Z,7.17
2018-04-14T06:30:51.290Z,6.03
2018-04-14T06:33:19.464Z,18.30
2018-04-14T06:35:47.524Z,7.53
2018-04-14T06:38:15.609Z,10.10
2018-04-14T06:40:43.672Z,11.02
2018-04-14T06:43:11.756Z,6.28
2018-04-14T06:45:39.822Z,6.47
2018-04-14T06:48:07.880Z,14.87
2018-04-14T06:50:37.802Z,7.10
2018-04-14T06:53:06.644Z,6.07
2018-04-14T06:55:34.720Z,6.37
2018-04-14T06:58:02.816Z,7.03
2018-04-14T07:00:31.524Z,5.97
2018-04-14T07:02:59.588Z,4.82
2018-04-14T07:05:27.635Z,5.60
2018-04-14T07:07:55.696Z,6.40
2018-04-14T07:10:25.661Z,4.80
2018-04-14T07:12:53.812Z,5.13
2018-04-14T07:15:21.897Z,4.60
2018-04-14T07:17:49.970Z,4.50
2018-04-14T07:20:18.008Z,5.13
2018-04-14T07:22:46.091Z,5.07
2018-04-14T07:25:14.148Z,4.15
2018-04-14T07:27:42.212Z,3.83
2018-04-14T07:30:10.264Z,7.47
2018-04-14T07:32:38.332Z,4.77
2018-04-14T07:35:06.450Z,6.30
2018-04-14T07:37:34.574Z,4.60
2018-04-14T07:40:02.601Z,5.27
2018-04-14T07:42:30.664Z,4.00
2018-04-14T07:44:58.771Z,11.93
2018-04-14T07:47:26.772Z,9.30
2018-04-14T07:49:55.491Z,4.32
2018-04-14T07:52:23.548Z,5.00
2018-04-14T07:54:52.253Z,8.40
2018-04-14T07:57:20.305Z,4.90
2018-04-14T07:59:48.356Z,6.27
2018-04-14T08:02:16.733Z,4.93
2018-04-14T08:04:44.849Z,6.50
2018-04-14T08:07:12.905Z,6.33
2018-04-14T08:09:40.960Z,4.57
2018-04-14T08:12:09.056Z,8.33
2018-04-14T08:14:37.109Z,9.70
2018-04-14T08:17:05.192Z,10.70
2018-04-14T08:19:33.247Z,8.70
2018-04-14T08:22:01.298Z,6.47
2018-04-14T08:24:29.356Z,6.70
2018-04-14T08:26:57.429Z,7.50
2018-04-14T08:29:25.965Z,9.77
2018-04-14T08:31:54.112Z,5.73
2018-04-14T08:34:22.168Z,7.17
2018-04-14T08:36:50.276Z,11.80
2018-04-14T08:39:18.333Z,5.90
2018-04-14T08:41:46.386Z,7.13
2018-04-14T08:44:14.448Z,6.87
2018-04-14T08:46:42.496Z,6.00
2018-04-14T08:49:10.561Z,8.73
2018-04-14T08:51:39.372Z,8.07
2018-04-14T08:54:07.436Z,9.13
2018-04-14T08:56:35.489Z,5.70
2018-04-14T08:59:03.552Z,5.97
2018-04-14T09:01:31.605Z,5.70
2018-04-14T09:03:59.770Z,20.03
2018-04-14T09:06:27.830Z,5.10
2018-04-14T09:08:56.433Z,6.68
2018-04-14T09:11:24.480Z,7.23
2018-04-14T09:13:52.561Z,5.40
2018-04-14T09:16:20.618Z,6.60
2018-04-14T09:18:48.673Z,6.30
2018-04-14T09:21:16.724Z,5.60
2018-04-14T09:23:44.800Z,3.00
2018-04-14T09:26:12.852Z,3.50
2018-04-14T09:28:40.915Z,3.60
2018-04-14T09:31:08.968Z,3.50
2018-04-14T09:33:37.036Z,4.43
2018-04-14T09:36:05.096Z,8.00
2018-04-14T09:38:33.165Z,4.67
2018-04-14T09:41:01.217Z,9.15
2018-04-14T09:43:29.319Z,4.57
2018-04-14T09:45:57.376Z,3.80
2018-04-14T09:48:25.444Z,5.33
2018-04-14T09:50:53.500Z,6.63
2018-04-14T09:53:21.563Z,7.80
2018-04-14T09:55:49.608Z,4.53
2018-04-14T09:58:17.677Z,3.97
2018-04-14T10:00:51.316Z,3.07
2018-04-14T10:03:23.144Z,4.47
2018-04-14T10:05:52.093Z,3.28
2018-04-14T10:08:20.174Z,2.80
2018-04-14T10:10:48.220Z,5.40
2018-04-14T10:13:16.291Z,3.23
2018-04-14T10:15:44.367Z,2.70
2018-04-14T10:18:12.438Z,2.23
2018-04-14T10:20:40.504Z,2.97
2018-04-14T10:23:08.577Z,7.70
2018-04-14T10:25:36.651Z,3.07
2018-04-14T10:28:04.745Z,3.40
2018-04-14T10:30:32.802Z,3.97
2018-04-14T10:33:00.854Z,4.05
2018-04-14T10:35:28.916Z,5.50
2018-04-14T10:37:57.822Z,5.06
2018-04-14T10:40:25.768Z,4.30
2018-04-14T10:42:53.824Z,17.13
2018-04-14T10:45:21.953Z,3.57
2018-04-14T10:47:50.023Z,3.73
2018-04-14T10:50:18.073Z,8.00
2018-04-14T10:52:46.122Z,3.70
2018-04-14T10:55:14.218Z,4.07
2018-04-14T10:57:42.269Z,5.27
2018-04-14T11:00:10.320Z,5.47
2018-04-14T11:02:38.380Z,4.50
2018-04-14T11:05:06.437Z,3.83
2018-04-14T11:07:34.503Z,6.97
2018-04-14T11:10:02.572Z,5.87
2018-04-14T11:12:30.723Z,6.07
2018-04-14T11:14:58.785Z,4.95
2018-04-14T11:17:26.845Z,11.63
2018-04-14T11:19:54.904Z,4.23
2018-04-14T11:22:23.725Z,4.70
2018-04-14T11:24:52.200Z,3.70
2018-04-14T11:27:20.248Z,3.80
2018-04-14T11:29:48.337Z,3.33
2018-04-14T11:32:16.389Z,2.95
2018-04-14T11:34:44.473Z,4.00
2018-04-14T11:37:12.529Z,3.55
2018-04-14T11:39:40.588Z,5.03
2018-04-14T11:42:08.656Z,3.53
2018-04-14T11:44:36.713Z,3.00
2018-04-14T11:47:04.765Z,6.70
2018-04-14T11:49:32.837Z,3.40
2018-04-14T11:52:00.980Z,2.20
2018-04-14T11:54:29.030Z,1.93
2018-04-14T11:56:57.109Z,1.50
2018-04-14T11:59:25.168Z,5.23
2018-04-14T12:01:53.260Z,1.43
2018-04-14T12:04:21.327Z,1.30
2018-04-14T12:06:49.375Z,3.27
2018-04-14T12:09:17.436Z,2.23
2018-04-14T12:11:45.488Z,1.00
2018-04-14T12:14:13.596Z,1.30
2018-04-14T12:16:41.645Z,3.00
2018-04-14T12:19:09.731Z,2.10
2018-04-14T12:21:37.781Z,1.00
2018-04-14T12:24:05.844Z,1.43
2018-04-14T12:26:33.900Z,1.20
2018-04-14T12:29:02.043Z,1.45
2018-04-14T12:31:30.104Z,1.10
2018-04-14T12:34:00.050Z,2.53
2018-04-14T12:36:29.253Z,1.73
2018-04-14T12:38:58.066Z,1.97
2018-04-14T12:41:26.123Z,2.03
2018-04-14T12:43:54.953Z,2.77
2018-04-14T12:46:23.048Z,2.27
2018-04-14T12:48:52.248Z,3.33
2018-04-14T12:51:20.316Z,2.43
2018-04-14T12:53:48.384Z,3.77
2018-04-14T12:56:16.446Z,3.62
2018-04-14T12:58:44.535Z,2.27
2018-04-14T13:01:12.618Z,2.30
2018-04-14T13:03:40.660Z,1.70
2018-04-14T13:06:08.722Z,1.87
2018-04-14T13:08:36.776Z,2.50
2018-04-14T13:11:04.832Z,2.92
2018-04-14T13:13:32.956Z,1.43
2018-04-14T13:16:01.020Z,1.48
2018-04-14T13:18:30.072Z,1.98
2018-04-14T13:20:58.139Z,1.52
2018-04-14T13:23:26.264Z,2.20
2018-04-14T13:25:54.350Z,1.10
2018-04-14T13:28:22.396Z,1.30
2018-04-14T13:30:50.456Z,2.00
2018-04-14T13:33:18.530Z,2.70
2018-04-14T13:35:46.601Z,1.00
2018-04-14T13:38:14.645Z,1.10
2018-04-14T13:40:42.728Z,1.27
2018-04-14T13:43:10.832Z,1.00
2018-04-14T13:45:38.904Z,1.10
2018-04-14T13:48:06.973Z,2.00
2018-04-14T13:50:35.036Z,1.15
2018-04-14T13:53:03.089Z,1.00
2018-04-14T13:55:31.152Z,1.53
2018-04-14T13:57:59.268Z,1.40
2018-04-14T14:00:27.339Z,1.23
2018-04-14T14:02:55.387Z,1.67
2018-04-14T14:05:23.441Z,1.23
2018-04-14T14:07:52.115Z,2.45
2018-04-14T14:10:20.168Z,1.60
2018-04-14T14:12:48.220Z,1.10
2018-04-14T14:15:16.280Z,1.70
2018-04-14T14:17:44.333Z,1.90
2018-04-14T14:20:12.398Z,2.65
2018-04-14T14:22:40.482Z,2.57
2018-04-14T14:25:08.541Z,1.30
2018-04-14T14:27:36.596Z,1.33
2018-04-14T14:30:04.702Z,1.80
2018-04-14T14:32:32.770Z,1.33
2018-04-14T14:35:01.146Z,2.80
2018-04-14T14:37:29.211Z,1.50
2018-04-14T14:39:57.284Z,12.07
2018-04-14T14:42:25.353Z,3.37
2018-04-14T14:44:53.404Z,2.93
2018-04-14T14:47:21.470Z,3.00
2018-04-14T14:49:49.520Z,1.87
2018-04-14T14:52:17.580Z,2.37
2018-04-14T14:54:45.632Z,2.07
2018-04-14T14:57:13.697Z,2.20
2018-04-14T14:59:41.748Z,2.40
2018-04-14T15:02:09.825Z,2.47
2018-04-14T15:04:37.877Z,3.37
2018-04-14T15:07:05.957Z,2.65
2018-04-14T15:09:34.011Z,6.70
2018-04-14T15:12:02.088Z,3.28
2018-04-14T15:14:30.148Z,3.00
2018-04-14T15:16:58.252Z,10.30
2018-04-14T15:19:26.322Z,3.30
2018-04-14T15:21:54.383Z,2.80
2018-04-14T15:24:22.428Z,4.77
2018-04-14T15:26:50.541Z,4.97
2018-04-14T15:29:18.601Z,7.18
2018-04-14T15:31:46.657Z,3.43
2018-04-14T15:34:14.711Z,4.05
2018-04-14T15:36:42.817Z,2.60
2018-04-14T15:39:10.886Z,3.40
2018-04-14T15:41:38.976Z,4.33
2018-04-14T15:44:07.132Z,3.93
2018-04-14T15:46:35.187Z,3.90
2018-04-14T15:49:03.248Z,4.47
2018-04-14T15:51:32.020Z,9.68
2018-04-14T15:54:01.088Z,5.75
2018-04-14T15:56:30.053Z,7.13
2018-04-14T15:58:58.144Z,7.47
2018-04-14T16:01:26.209Z,7.63
2018-04-14T16:03:54.366Z,4.90
2018-04-14T16:06:22.437Z,9.43
2018-04-14T16:08:50.484Z,5.33
2018-04-14T16:11:18.678Z,8.67
2018-04-14T16:13:47.581Z,8.10
2018-04-14T16:16:16.760Z,5.00
2018-04-14T16:18:44.813Z,8.67
2018-04-14T16:21:12.875Z,11.07
2018-04-14T16:23:41.622Z,5.67
2018-04-14T16:26:09.688Z,13.75
2018-04-14T16:28:39.244Z,8.50
2018-04-14T16:31:07.347Z,4.37
2018-04-14T16:33:35.424Z,5.50
2018-04-14T16:36:04.438Z,10.95
2018-04-14T16:38:32.496Z,4.33
2018-04-14T16:41:01.458Z,4.78
2018-04-14T16:43:29.504Z,5.00
2018-04-14T16:45:57.609Z,3.90
2018-04-14T16:48:25.664Z,5.60
2018-04-14T16:50:53.725Z,4.60
2018-04-14T16:53:23.684Z,4.90
2018-04-14T16:55:52.161Z,4.80
2018-04-14T16:58:20.226Z,5.23
2018-04-14T17:00:48.274Z,4.32
2018-04-14T17:03:17.764Z,4.10
2018-04-14T17:05:46.649Z,10.03
2018-04-14T17:08:14.714Z,6.30
2018-04-14T17:10:42.759Z,4.97
2018-04-14T17:13:12.372Z,4.90
2018-04-14T17:15:40.437Z,6.77
2018-04-14T17:18:08.500Z,5.55
2018-04-14T17:20:43.299Z,6.93
2018-04-14T17:23:11.422Z,10.00
2018-04-14T17:25:39.545Z,5.90
2018-04-14T17:28:07.624Z,9.18
2018-04-14T17:30:35.696Z,15.87
2018-04-14T17:33:03.757Z,7.60
2018-04-14T17:35:32.872Z,5.70
2018-04-14T17:38:00.941Z,12.30
2018-04-14T17:40:29.102Z,7.27
2018-04-14T17:42:57.180Z,9.90
2018-04-14T17:45:25.236Z,6.25
2018-04-14T17:47:53.304Z,5.30
2018-04-14T17:50:21.397Z,6.67
2018-04-14T17:52:49.454Z,6.03
2018-04-14T17:55:17.626Z,6.00
2018-04-14T17:57:45.692Z,6.77
2018-04-14T18:00:13.773Z,5.37
2018-04-14T18:02:41.875Z,7.20
2018-04-14T18:05:09.924Z,12.43
2018-04-14T18:07:38.805Z,7.30
2018-04-14T18:10:06.894Z,5.75
2018-04-14T18:12:35.875Z,5.83
2018-04-14T18:15:04.249Z,4.68
2018-04-14T18:17:32.310Z,5.73
2018-04-14T18:20:01.085Z,14.57
2018-04-14T18:22:29.142Z,6.30
2018-04-14T18:24:57.199Z,7.32
2018-04-14T18:27:26.227Z,5.70
2018-04-14T18:29:54.300Z,5.00
2018-04-14T18:32:22.364Z,14.03
2018-04-14T18:34:51.249Z,7.03
2018-04-14T18:37:19.337Z,4.50
2018-04-14T18:39:47.404Z,7.83
2018-04-14T18:42:15.468Z,12.77
2018-04-14T18:44:43.534Z,5.50
2018-04-14T18:47:11.596Z,16.60
2018-04-14T18:49:39.676Z,8.70
2018-04-14T18:52:08.242Z,5.57
2018-04-14T18:54:36.347Z,7.83
2018-04-14T18:57:04.444Z,7.97
2018-04-14T18:59:32.504Z,8.47
2018-04-14T19:02:00.653Z,6.20
2018-04-14T19:04:28.728Z,8.33
2018-04-14T19:06:56.788Z,5.60
2018-04-14T19:09:24.873Z,6.23
2018-04-14T19:11:52.925Z,6.30
2018-04-14T19:14:20.991Z,6.93
2018-04-14T19:16:49.053Z,6.13
2018-04-14T19:19:17.108Z,9.07
2018-04-14T19:21:45.165Z,27.10
2018-04-14T19:24:13.311Z,16.90
2018-04-14T19:26:41.366Z,8.83
2018-04-14T19:29:09.484Z,8.55
2018-04-14T19:31:37.537Z,8.00
2018-04-14T19:34:05.602Z,8.65
2018-04-14T19:36:33.755Z,8.90
2018-04-14T19:39:01.811Z,9.18
2018-04-14T19:41:29.892Z,8.10
2018-04-14T19:43:57.948Z,9.60
2018-04-14T19:46:26.033Z,12.07
2018-04-14T19:48:54.104Z,6.17
2018-04-14T19:51:22.169Z,8.27
2018-04-14T19:53:50.245Z,23.10
2018-04-14T19:56:18.316Z,7.47
2018-04-14T19:58:46.392Z,7.13
2018-04-14T20:01:14.452Z,8.67
2018-04-14T20:03:42.533Z,11.00
2018-04-14T20:06:10.712Z,9.33
2018-04-14T20:08:38.764Z,8.03
2018-04-14T20:11:06.836Z,12.70
2018-04-14T20:13:34.917Z,7.43
2018-04-14T20:16:02.984Z,8.73
2018-04-14T20:18:31.065Z,8.50
2018-04-14T20:20:59.141Z,9.00
2018-04-14T20:23:27.209Z,6.47
2018-04-14T20:25:55.273Z,12.47
2018-04-14T20:28:23.335Z,13.15
2018-04-14T20:30:52.330Z,15.20
2018-04-14T20:33:20.400Z,9.93
2018-04-14T20:35:48.469Z,8.60
2018-04-14T20:38:16.520Z,15.03
2018-04-14T20:40:44.589Z,10.40
2018-04-14T20:43:12.644Z,10.30
2018-04-14T20:45:40.727Z,7.47
2018-04-14T20:48:08.792Z,10.18
2018-04-14T20:50:36.847Z,18.30
2018-04-14T20:53:04.907Z,10.63
2018-04-14T20:55:32.962Z,12.80
2018-04-14T20:58:01.016Z,8.23
2018-04-14T21:00:29.077Z,8.03
2018-04-14T21:02:57.152Z,6.75
2018-04-14T21:05:25.221Z,8.40
2018-04-14T21:07:53.281Z,7.70
2018-04-14T21:10:21.348Z,13.73
2018-04-14T21:12:51.510Z,10.00
2018-04-14T21:15:19.572Z,11.03
2018-04-14T21:17:47.621Z,8.50
2018-04-14T21:20:15.680Z,6.60
2018-04-14T21:22:43.732Z,5.90
2018-04-14T21:25:11.846Z,5.83
2018-04-14T21:27:39.896Z,13.27
2018-04-14T21:30:07.945Z,7.80
2018-04-14T21:32:36.004Z,9.33
2018-04-14T21:35:04.064Z,8.02
2018-04-14T21:37:32.189Z,7.30
2018-04-14T21:40:00.256Z,7.30
2018-04-14T21:42:28.305Z,6.27
2018-04-14T21:44:56.377Z,9.00
2018-04-14T21:47:24.472Z,10.57
2018-04-14T21:49:52.546Z,6.80
2018-04-14T21:52:20.596Z,24.20
2018-04-14T21:54:48.665Z,8.73
2018-04-14T21:57:16.752Z,7.20
2018-04-14T21:59:44.824Z,10.93
2018-04-14T22:02:12.880Z,8.17
2018-04-14T22:04:40.937Z,9.10
2018-04-14T22:07:09.032Z,6.27
2018-04-14T22:09:37.096Z,23.23
2018-04-14T22:12:05.156Z,8.90
2018-04-14T22:14:34.867Z,8.93
2018-04-14T22:17:03.780Z,10.90
2018-04-14T22:19:31.828Z,13.23
2018-04-14T22:21:59.889Z,7.43
2018-04-14T22:24:27.988Z,10.40
2018-04-14T22:26:56.048Z,8.87
2018-04-14T22:29:24.128Z,12.73
2018-04-14T22:31:52.195Z,11.40
2018-04-14T22:34:20.247Z,13.07
2018-04-14T22:36:48.324Z,9.43
2018-04-14T22:39:16.395Z,9.87
2018-04-14T22:41:44.448Z,15.53
2018-04-14T22:44:12.509Z,11.40
2018-04-14T22:46:40.572Z,14.93
2018-04-14T22:49:08.697Z,8.73
2018-04-14T22:51:36.756Z,8.70
2018-04-14T22:54:04.812Z,11.03
2018-04-14T22:56:32.939Z,9.73
2018-04-14T22:59:00.952Z,13.33
2018-04-14T23:01:29.008Z,9.07
2018-04-14T23:03:57.069Z,6.82
2018-04-14T23:06:25.140Z,12.40
2018-04-14T23:08:53.221Z,7.43
2018-04-14T23:11:21.292Z,11.57
2018-04-14T23:13:49.387Z,8.57
2018-04-14T23:16:17.413Z,9.70
2018-04-14T23:18:45.465Z,10.87
2018-04-14T23:21:13.528Z,11.27
2018-04-14T23:23:41.577Z,10.57
2018-04-14T23:26:09.664Z,13.77
2018-04-14T23:28:37.710Z,14.37
2018-04-14T23:31:05.776Z,9.73
2018-04-14T23:33:33.832Z,14.17
2018-04-14T23:36:01.891Z,9.30
2018-04-14T23:38:30.004Z,13.40
2018-04-14T23:40:58.069Z,12.53
2018-04-14T23:43:26.124Z,19.12
2018-04-14T23:45:54.180Z,16.27
2018-04-14T23:48:22.289Z,21.83
2018-04-14T23:50:50.337Z,8.27
2018-04-14T23:53:18.401Z,12.00
2018-04-14T23:55:46.502Z,11.10
2018-04-14T23:58:14.667Z,9.10
